Alma, Nebraska
Current Conditions -  °F | °C
As of 7:35 PM on Thursday 27 Nov 2014 (Local Time) from KHDE Reporting Station
Clear Clear  
Wind Chill: 28°   Ceiling: Unl
Heat Index: 36°   Visibility: 10mi
Dew Point: 20°   Wind: 12mph
Humidity: 54%   Direction: 160°SSE
Pressure: 30.05"   Gusts: NA
Location:  40.1°N, 99.36°W
Report Text: KHDE 280135Z AUTO 16010KT 10SM CLR 02/M06 A3005 RMK AO2 T00201065
Loading
Personal Weather Stations






























Interactive Weather Map New forecast layout! Learn more

10-Day Weather Forecast

Advertisements
Track Severe Weather on mobile